createdAt,value
2023-01-08T00:00:32.858Z,4.5
2023-01-08T00:01:34.749Z,4.5
2023-01-08T00:02:36.811Z,4.5
2023-01-08T00:03:39.083Z,4.5
2023-01-08T00:04:40.750Z,4.4
2023-01-08T00:05:42.751Z,4.3
2023-01-08T00:06:44.761Z,4.3
2023-01-08T00:07:47.749Z,4.2
2023-01-08T00:08:49.795Z,4.2
2023-01-08T00:09:52.780Z,4.1
2023-01-08T00:10:54.755Z,4.1
2023-01-08T00:11:56.748Z,4.2
2023-01-08T00:12:58.755Z,4.1
2023-01-08T00:14:01.159Z,4.1
2023-01-08T00:15:02.784Z,4.1
2023-01-08T00:16:05.913Z,4
2023-01-08T00:17:07.764Z,4
2023-01-08T00:18:09.798Z,3.9
2023-01-08T00:19:11.792Z,3.9
2023-01-08T00:20:14.755Z,3.8
2023-01-08T00:21:16.777Z,3.8
2023-01-08T00:22:19.763Z,3.8
2023-01-08T00:23:21.794Z,3.8
2023-01-08T00:24:24.810Z,3.7
2023-01-08T00:25:27.769Z,3.7
2023-01-08T00:26:29.762Z,3.7
2023-01-08T00:27:32.760Z,3.7
2023-01-08T00:28:34.801Z,3.6
2023-01-08T00:29:37.796Z,3.6
2023-01-08T00:30:39.868Z,3.6
2023-01-08T00:31:42.777Z,3.6
2023-01-08T00:32:45.772Z,3.5
2023-01-08T00:33:47.776Z,3.5
2023-01-08T00:34:50.773Z,3.5
2023-01-08T00:35:52.785Z,3.5
2023-01-08T00:36:54.776Z,3.5
2023-01-08T00:37:56.786Z,3.5
2023-01-08T00:38:59.768Z,3.5
2023-01-08T00:40:01.761Z,3.6
2023-01-08T00:41:03.780Z,3.6
2023-01-08T00:42:06.783Z,3.7
2023-01-08T00:43:08.824Z,3.8
2023-01-08T00:44:10.791Z,3.8
2023-01-08T00:45:13.790Z,3.9
2023-01-08T00:46:15.923Z,3.9
2023-01-08T00:47:17.779Z,3.8
2023-01-08T00:48:19.815Z,3.8
2023-01-08T00:49:21.786Z,3.9
2023-01-08T00:50:24.806Z,3.9
2023-01-08T00:51:27.795Z,4
2023-01-08T00:52:29.778Z,4
2023-01-08T00:53:31.797Z,4
2023-01-08T00:54:33.786Z,4
2023-01-08T00:55:35.791Z,4
2023-01-08T00:56:37.793Z,4
2023-01-08T00:57:39.780Z,4
2023-01-08T00:58:41.841Z,4
2023-01-08T00:59:43.797Z,4.1
2023-01-08T01:00:46.870Z,4.1
2023-01-08T01:01:48.957Z,4.1
2023-01-08T01:02:50.787Z,4.1
2023-01-08T01:03:52.853Z,4
2023-01-08T01:04:54.816Z,4
2023-01-08T01:05:56.803Z,4
2023-01-08T01:06:58.793Z,4
2023-01-08T01:08:01.789Z,3.9
2023-01-08T01:09:03.807Z,3.8
2023-01-08T01:10:05.789Z,3.8
2023-01-08T01:11:07.793Z,3.7
2023-01-08T01:12:09.881Z,3.7
2023-01-08T01:13:11.815Z,3.7
2023-01-08T01:14:14.847Z,3.6
2023-01-08T01:15:16.795Z,3.5
2023-01-08T01:16:18.878Z,3.5
2023-01-08T01:17:21.796Z,3.4
2023-01-08T01:18:24.836Z,3.4
2023-01-08T01:19:27.819Z,3.3
2023-01-08T01:20:29.806Z,3.4
2023-01-08T01:21:31.799Z,3.4
2023-01-08T01:22:33.808Z,3.3
2023-01-08T01:23:36.837Z,3.3
2023-01-08T01:24:38.797Z,3.3
2023-01-08T01:25:40.800Z,3.2
2023-01-08T01:26:42.803Z,3.2
2023-01-08T01:27:44.797Z,3.2
2023-01-08T01:28:47.832Z,3.2
2023-01-08T01:29:49.897Z,3.1
2023-01-08T01:30:52.886Z,3.1
2023-01-08T01:31:54.830Z,3.1
2023-01-08T01:32:56.806Z,3
2023-01-08T01:33:59.852Z,3
2023-01-08T01:35:01.853Z,3
2023-01-08T01:36:04.820Z,2.9
2023-01-08T01:37:06.812Z,2.9
2023-01-08T01:38:08.808Z,2.9
2023-01-08T01:39:10.805Z,2.9
2023-01-08T01:40:12.842Z,2.9
2023-01-08T01:41:14.814Z,2.9
2023-01-08T01:42:16.830Z,2.9
2023-01-08T01:43:18.814Z,2.9
2023-01-08T01:44:20.826Z,3
2023-01-08T01:45:22.870Z,3
2023-01-08T01:46:24.830Z,3
2023-01-08T01:47:27.829Z,3.2
2023-01-08T01:48:30.838Z,3.2
2023-01-08T01:49:32.864Z,3.3
2023-01-08T01:50:34.868Z,3.4
2023-01-08T01:51:36.825Z,3.5
2023-01-08T01:52:38.834Z,3.5
2023-01-08T01:53:41.852Z,3.6
2023-01-08T01:54:43.832Z,3.6
2023-01-08T01:55:45.872Z,3.6
2023-01-08T01:56:47.836Z,3.6
2023-01-08T01:57:49.824Z,3.7
2023-01-08T01:58:51.827Z,3.7
2023-01-08T01:59:53.825Z,3.7
2023-01-08T02:00:55.957Z,3.7
2023-01-08T02:01:57.989Z,3.7
2023-01-08T02:02:59.827Z,3.7
2023-01-08T02:04:02.915Z,3.7
2023-01-08T02:05:04.886Z,3.8
2023-01-08T02:06:06.835Z,3.8
2023-01-08T02:07:08.836Z,3.8
2023-01-08T02:08:10.835Z,3.7
2023-01-08T02:09:12.827Z,3.7
2023-01-08T02:10:14.850Z,3.8
2023-01-08T02:11:17.833Z,3.8
2023-01-08T02:12:19.844Z,3.8
2023-01-08T02:13:21.871Z,3.8
2023-01-08T02:14:24.914Z,3.8
2023-01-08T02:15:27.843Z,3.8
2023-01-08T02:16:29.901Z,3.8
2023-01-08T02:17:31.832Z,3.8
2023-01-08T02:18:33.871Z,3.8
2023-01-08T02:19:35.834Z,3.9
2023-01-08T02:20:37.837Z,3.9
2023-01-08T02:21:39.883Z,3.9
2023-01-08T02:22:42.856Z,3.9
2023-01-08T02:23:44.901Z,3.9
2023-01-08T02:24:46.904Z,3.9
2023-01-08T02:25:48.836Z,3.9
2023-01-08T02:26:50.874Z,3.9
2023-01-08T02:27:52.824Z,3.9
2023-01-08T02:28:54.964Z,3.9
2023-01-08T02:29:57.201Z,3.9
2023-01-08T02:30:58.894Z,3.9
2023-01-08T02:32:01.140Z,3.9
2023-01-08T02:33:02.852Z,3.9
2023-01-08T02:34:05.887Z,3.9
2023-01-08T02:35:07.847Z,3.9
2023-01-08T02:36:09.971Z,3.9
2023-01-08T02:37:11.860Z,3.8
2023-01-08T02:38:13.847Z,3.8
2023-01-08T02:39:15.859Z,3.7
2023-01-08T02:40:17.860Z,3.7
2023-01-08T02:41:19.863Z,3.7
2023-01-08T02:42:21.859Z,3.6
2023-01-08T02:43:24.909Z,3.6
2023-01-08T02:44:27.869Z,3.5
2023-01-08T02:45:29.860Z,3.5
2023-01-08T02:46:32.854Z,3.5
2023-01-08T02:47:34.846Z,3.5
2023-01-08T02:48:36.863Z,3.4
2023-01-08T02:49:38.874Z,3.4
2023-01-08T02:50:40.867Z,3.5
2023-01-08T02:51:42.864Z,3.6
2023-01-08T02:52:44.896Z,3.6
2023-01-08T02:53:46.909Z,3.6
2023-01-08T02:54:49.859Z,3.6
2023-01-08T02:55:51.863Z,3.6
2023-01-08T02:56:53.862Z,3.7
2023-01-08T02:57:56.861Z,3.7
2023-01-08T02:58:58.906Z,3.7
2023-01-08T03:00:01.202Z,3.6
2023-01-08T03:01:02.947Z,3.7
2023-01-08T03:02:05.140Z,3.6
2023-01-08T03:03:06.908Z,3.6
2023-01-08T03:04:08.949Z,3.6
2023-01-08T03:05:10.868Z,3.6
2023-01-08T03:06:13.866Z,3.6
2023-01-08T03:07:15.871Z,3.6
2023-01-08T03:08:17.869Z,3.5
2023-01-08T03:09:19.892Z,3.5
2023-01-08T03:10:21.901Z,3.5
2023-01-08T03:11:24.978Z,3.4
2023-01-08T03:12:27.876Z,3.4
2023-01-08T03:13:29.887Z,3.5
2023-01-08T03:14:31.902Z,3.5
2023-01-08T03:15:34.879Z,3.4
2023-01-08T03:16:36.997Z,3.4
2023-01-08T03:17:38.879Z,3.4
2023-01-08T03:18:40.876Z,3.3
2023-01-08T03:19:42.879Z,3.3
2023-01-08T03:20:45.901Z,3.2
2023-01-08T03:21:47.883Z,3.2
2023-01-08T03:22:49.889Z,3.2
2023-01-08T03:23:51.931Z,3.1
2023-01-08T03:24:54.887Z,3.1
2023-01-08T03:25:56.881Z,3.1
2023-01-08T03:26:58.892Z,3.2
2023-01-08T03:28:01.150Z,3.2
2023-01-08T03:29:02.924Z,3.3
2023-01-08T03:30:04.944Z,3.3
2023-01-08T03:31:06.937Z,3.3
2023-01-08T03:32:08.911Z,3.2
2023-01-08T03:33:10.893Z,3.2
2023-01-08T03:34:12.887Z,3.1
2023-01-08T03:35:14.889Z,3.1
2023-01-08T03:36:16.929Z,3
2023-01-08T03:37:19.912Z,3
2023-01-08T03:38:21.895Z,2.9
2023-01-08T03:39:24.912Z,2.9
2023-01-08T03:40:27.895Z,2.8
2023-01-08T03:41:29.898Z,2.9
2023-01-08T03:42:31.904Z,2.9
2023-01-08T03:43:33.950Z,2.9
2023-01-08T03:44:35.905Z,2.9
2023-01-08T03:45:37.898Z,2.9
2023-01-08T03:46:39.901Z,2.9
2023-01-08T03:47:42.899Z,2.8
2023-01-08T03:48:44.924Z,2.8
2023-01-08T03:49:46.900Z,2.8
2023-01-08T03:50:48.978Z,2.9
2023-01-08T03:51:51.108Z,3
2023-01-08T03:52:52.898Z,3
2023-01-08T03:53:54.904Z,3.1
2023-01-08T03:54:56.930Z,3.1
2023-01-08T03:56:04.175Z,3.2
2023-01-08T03:57:01.917Z,3.2
2023-01-08T03:58:03.896Z,3.1
2023-01-08T03:59:05.903Z,3.2
2023-01-08T04:00:07.908Z,3.2
2023-01-08T04:01:10.061Z,3.2
2023-01-08T04:02:12.072Z,3.3
2023-01-08T04:03:14.919Z,3.3
2023-01-08T04:04:16.943Z,3.3
2023-01-08T04:05:19.001Z,3.4
2023-01-08T04:06:20.915Z,3.4
2023-01-08T04:07:22.928Z,3.4
2023-01-08T04:08:28.924Z,3.4
2023-01-08T04:09:31.919Z,3.4
2023-01-08T04:10:33.911Z,3.4
2023-01-08T04:11:36.922Z,3.4
2023-01-08T04:12:38.910Z,3.4
2023-01-08T04:13:40.928Z,3.4
2023-01-08T04:14:42.922Z,3.4
2023-01-08T04:15:44.970Z,3.4
2023-01-08T04:16:47.933Z,3.4
2023-01-08T04:17:49.914Z,3.4
2023-01-08T04:18:51.918Z,3.4
2023-01-08T04:19:54.920Z,3.5
2023-01-08T04:20:56.975Z,3.5
2023-01-08T04:21:58.919Z,3.4
2023-01-08T04:23:01.132Z,3.4
2023-01-08T04:24:02.925Z,3.4
2023-01-08T04:25:04.932Z,3.4
2023-01-08T04:26:06.920Z,3.4
2023-01-08T04:27:08.954Z,3.4
2023-01-08T04:28:10.926Z,3.4
2023-01-08T04:29:12.921Z,3.3
2023-01-08T04:30:14.926Z,3.4
2023-01-08T04:31:16.999Z,3.4
2023-01-08T04:32:19.971Z,3.4
2023-01-08T04:33:21.938Z,3.4
2023-01-08T04:34:24.962Z,3.4
2023-01-08T04:35:27.940Z,3.5
2023-01-08T04:36:30.936Z,3.5
2023-01-08T04:37:32.922Z,3.5
2023-01-08T04:38:35.176Z,3.6
2023-01-08T04:39:36.923Z,3.6
2023-01-08T04:40:38.958Z,3.6
2023-01-08T04:41:40.940Z,3.7
2023-01-08T04:42:42.942Z,3.7
2023-01-08T04:43:44.949Z,3.7
2023-01-08T04:44:47.949Z,3.7
2023-01-08T04:45:49.932Z,3.8
2023-01-08T04:46:51.938Z,3.7
2023-01-08T04:47:53.928Z,3.7
2023-01-08T04:48:55.979Z,3.7
2023-01-08T04:49:57.984Z,3.7
2023-01-08T04:51:01.212Z,3.8
2023-01-08T04:52:02.945Z,3.8
2023-01-08T04:53:04.947Z,3.8
2023-01-08T04:54:07.176Z,3.8
2023-01-08T04:55:08.949Z,3.8
2023-01-08T04:56:10.937Z,3.8
2023-01-08T04:57:12.937Z,3.8
2023-01-08T04:58:14.960Z,3.8
2023-01-08T04:59:16.951Z,3.7
2023-01-08T05:00:18.944Z,3.7
2023-01-08T05:01:22.177Z,3.7
2023-01-08T05:02:25.139Z,3.7
2023-01-08T05:03:28.027Z,3.7
2023-01-08T05:04:29.953Z,3.7
2023-01-08T05:05:32.976Z,3.7
2023-01-08T05:06:34.959Z,3.7
2023-01-08T05:07:37.966Z,3.7
2023-01-08T05:08:39.958Z,3.7
2023-01-08T05:09:41.991Z,3.8
2023-01-08T05:10:44.022Z,3.8
2023-01-08T05:11:46.983Z,3.8
2023-01-08T05:12:48.949Z,3.7
2023-01-08T05:13:50.957Z,3.8
2023-01-08T05:14:52.964Z,3.8
2023-01-08T05:15:55.100Z,3.8
2023-01-08T05:16:57.965Z,3.8
2023-01-08T05:17:59.955Z,3.8
2023-01-08T05:19:02.958Z,3.8
2023-01-08T05:20:04.962Z,3.8
2023-01-08T05:21:07.969Z,3.8
2023-01-08T05:22:09.970Z,3.8
2023-01-08T05:23:11.975Z,3.8
2023-01-08T05:24:13.957Z,3.8
2023-01-08T05:25:16.956Z,3.9
2023-01-08T05:26:19.040Z,3.9
2023-01-08T05:27:21.960Z,3.9
2023-01-08T05:28:24.994Z,3.8
2023-01-08T05:29:28.017Z,3.9
2023-01-08T05:30:29.970Z,3.9
2023-01-08T05:31:32.081Z,3.9
2023-01-08T05:32:35.000Z,3.8
2023-01-08T05:33:36.971Z,3.8
2023-01-08T05:34:39.000Z,3.9
2023-01-08T05:35:41.991Z,3.9
2023-01-08T05:36:43.965Z,3.9
2023-01-08T05:37:45.966Z,3.9
2023-01-08T05:38:47.990Z,3.9
2023-01-08T05:39:49.981Z,3.9
2023-01-08T05:40:52.003Z,3.9
2023-01-08T05:41:53.998Z,4
2023-01-08T05:42:56.028Z,4
2023-01-08T05:43:58.981Z,3.9
2023-01-08T05:45:01.138Z,3.9
2023-01-08T05:46:03.056Z,3.9
2023-01-08T05:47:04.984Z,3.9
2023-01-08T05:48:07.997Z,4
2023-01-08T05:49:10.015Z,4
2023-01-08T05:51:13.986Z,3.9
2023-01-08T05:52:30.438Z,3.9
2023-01-08T05:53:18.295Z,3.9
2023-01-08T05:54:21.128Z,3.9
2023-01-08T05:55:23.131Z,3.9
2023-01-08T05:57:31.136Z,3.9
2023-01-08T05:58:33.157Z,3.9
2023-01-08T05:59:35.145Z,3.9
2023-01-08T06:01:39.259Z,3.9
2023-01-08T06:09:03.609Z,3.8
2023-01-08T06:10:05.598Z,3.7
2023-01-08T06:11:07.611Z,3.7
2023-01-08T06:12:09.597Z,3.7
2023-01-08T06:13:11.608Z,3.7
2023-01-08T06:15:16.628Z,3.7
2023-01-08T06:16:18.742Z,3.7
2023-01-08T06:17:20.606Z,3.8
2023-01-08T06:18:22.609Z,3.7
2023-01-08T06:19:24.604Z,3.7
2023-01-08T06:20:26.620Z,3.7
2023-01-08T06:21:28.696Z,3.7
2023-01-08T06:22:32.371Z,3.7
2023-01-08T06:23:32.603Z,3.7
2023-01-08T06:24:34.610Z,3.7
2023-01-08T06:25:36.609Z,3.8
2023-01-08T06:26:38.651Z,3.8
2023-01-08T06:27:41.629Z,3.8
2023-01-08T06:28:44.637Z,3.8
2023-01-08T06:29:46.615Z,3.8
2023-01-08T06:30:48.624Z,3.8
2023-01-08T06:31:50.621Z,3.8
2023-01-08T06:32:52.611Z,3.8
2023-01-08T06:33:54.663Z,3.8
2023-01-08T06:34:56.647Z,3.7
2023-01-08T06:35:58.614Z,3.7
2023-01-08T06:37:01.211Z,3.7
2023-01-08T06:38:02.620Z,3.8
2023-01-08T06:39:04.641Z,3.8
2023-01-08T06:40:06.659Z,3.8
2023-01-08T06:41:09.618Z,3.8
2023-01-08T06:42:11.629Z,3.8
2023-01-08T06:43:13.621Z,3.8
2023-01-08T06:44:15.649Z,3.8
2023-01-08T06:45:17.657Z,3.8
2023-01-08T06:46:19.710Z,3.8
2023-01-08T06:47:21.623Z,3.9
2023-01-08T06:48:23.614Z,3.9
2023-01-08T06:49:25.636Z,3.8
2023-01-08T06:50:28.621Z,3.8
2023-01-08T06:51:30.628Z,3.7
2023-01-08T06:52:32.631Z,3.8
2023-01-08T06:53:34.626Z,3.8
2023-01-08T06:54:36.630Z,3.8
2023-01-08T06:55:39.632Z,3.9
2023-01-08T06:56:53.080Z,3.8
2023-01-08T06:57:45.638Z,3.9
2023-01-08T06:58:48.634Z,3.9
2023-01-08T06:59:50.635Z,3.9
2023-01-08T07:00:52.635Z,3.8
2023-01-08T07:01:54.817Z,3.8
2023-01-08T07:02:56.802Z,3.8
2023-01-08T07:03:58.679Z,3.8
2023-01-08T07:05:01.641Z,3.8
2023-01-08T07:06:03.659Z,3.8
2023-01-08T07:07:05.641Z,3.8
2023-01-08T07:08:08.639Z,3.8
2023-01-08T07:09:10.685Z,3.9
2023-01-08T07:10:13.701Z,3.9
2023-01-08T07:11:15.692Z,3.9
2023-01-08T07:12:17.647Z,3.9
2023-01-08T07:13:19.634Z,3.9
2023-01-08T07:14:21.640Z,3.9
2023-01-08T07:15:23.644Z,3.9
2023-01-08T07:16:25.784Z,3.8
2023-01-08T07:17:27.640Z,3.8
2023-01-08T07:18:29.634Z,3.8
2023-01-08T07:19:31.637Z,3.9
2023-01-08T07:20:33.710Z,3.9
2023-01-08T07:21:35.705Z,3.9
2023-01-08T07:22:37.659Z,3.9
2023-01-08T07:23:39.647Z,3.9
2023-01-08T07:24:41.665Z,3.8
2023-01-08T07:25:44.671Z,3.8
2023-01-08T07:26:46.688Z,3.8
2023-01-08T07:27:48.647Z,3.9
2023-01-08T07:28:50.656Z,3.9
2023-01-08T07:29:52.648Z,3.9
2023-01-08T07:30:54.759Z,3.9
2023-01-08T07:31:56.689Z,3.9
2023-01-08T07:32:59.670Z,4
2023-01-08T07:34:01.666Z,4
2023-01-08T07:35:03.675Z,4
2023-01-08T07:36:05.715Z,4
2023-01-08T07:37:07.676Z,4
2023-01-08T07:38:09.664Z,4
2023-01-08T07:39:12.658Z,4
2023-01-08T07:40:14.665Z,4
2023-01-08T07:41:16.671Z,4
2023-01-08T07:42:19.693Z,4
2023-01-08T07:43:21.659Z,4
2023-01-08T07:44:23.689Z,4
2023-01-08T07:45:25.669Z,4
2023-01-08T07:46:27.737Z,4
2023-01-08T07:54:41.216Z,4
2023-01-08T07:54:41.687Z,4
2023-01-08T07:55:25.764Z,4
2023-01-08T07:56:25.762Z,4
2023-01-08T07:57:25.781Z,4
2023-01-08T08:05:05.583Z,4.1
2023-01-08T08:06:05.694Z,4.2
2023-01-08T08:08:17.668Z,4.1
2023-01-08T08:09:17.798Z,4.1
2023-01-08T08:11:46.893Z,4.1
2023-01-08T08:12:48.904Z,4.1
2023-01-08T08:13:53.073Z,4.1
2023-01-08T08:14:53.931Z,4.1
2023-01-08T08:15:55.977Z,4.1
2023-01-08T08:16:57.891Z,4.1
2023-01-08T08:17:59.979Z,4.1
2023-01-08T08:19:01.895Z,4.1
2023-01-08T08:20:03.943Z,4.1
2023-01-08T08:21:05.903Z,4.1
2023-01-08T08:22:07.893Z,4.1
2023-01-08T08:23:09.902Z,4.1
2023-01-08T08:24:12.917Z,4.1
2023-01-08T08:25:15.929Z,4.1
2023-01-08T08:26:17.894Z,4.1
2023-01-08T08:27:19.920Z,4.2
2023-01-08T08:28:21.908Z,4.2
2023-01-08T08:29:23.912Z,4.2
2023-01-08T08:30:25.950Z,4.2
2023-01-08T08:31:27.945Z,4.2
2023-01-08T08:32:29.910Z,4.2
2023-01-08T08:33:31.994Z,4.2
2023-01-08T08:34:33.914Z,4.2
2023-01-08T08:35:35.939Z,4.2
2023-01-08T08:36:37.956Z,4.3
2023-01-08T08:37:39.938Z,4.3
2023-01-08T08:38:41.915Z,4.3
2023-01-08T08:39:43.901Z,4.3
2023-01-08T08:40:45.906Z,4.3
2023-01-08T08:41:47.924Z,4.3
2023-01-08T08:42:49.933Z,4.4
2023-01-08T08:53:52.656Z,4.3
2023-01-08T08:55:56.676Z,4.3
2023-01-08T08:56:58.664Z,4.3
2023-01-08T08:58:01.137Z,4.3
2023-01-08T08:59:02.666Z,4.3
2023-01-08T09:00:04.657Z,4.2
2023-01-08T09:01:06.651Z,4.2
2023-01-08T09:02:08.901Z,4.2
2023-01-08T09:03:10.727Z,4.3
2023-01-08T09:04:12.696Z,4.3
2023-01-08T09:05:14.665Z,4.2
2023-01-08T09:06:16.676Z,4.2
2023-01-08T09:07:18.657Z,4.2
2023-01-08T09:08:20.651Z,4.3
2023-01-08T09:09:22.664Z,4.3
2023-01-08T09:10:24.758Z,4.3
2023-01-08T09:11:26.662Z,4.3
2023-01-08T09:12:29.663Z,4.4
2023-01-08T09:13:31.672Z,4.4
2023-01-08T09:14:33.694Z,4.4
2023-01-08T09:15:37.668Z,4.4
2023-01-08T09:16:39.709Z,4.4
2023-01-08T09:17:41.676Z,4.4
2023-01-08T09:18:43.671Z,4.4
2023-01-08T09:19:45.697Z,4.4
2023-01-08T09:20:47.670Z,4.4
2023-01-08T09:21:49.668Z,4.4
2023-01-08T09:22:51.673Z,4.4
2023-01-08T09:23:53.686Z,4.4
2023-01-08T09:24:56.676Z,4.4
2023-01-08T09:25:58.663Z,4.5
2023-01-08T09:27:01.176Z,4.4
2023-01-08T09:28:02.727Z,4.4
2023-01-08T09:29:04.702Z,4.4
2023-01-08T09:30:06.690Z,4.4
2023-01-08T09:31:09.705Z,4.3
2023-01-08T09:32:11.672Z,4.3
2023-01-08T09:33:13.670Z,4.4
2023-01-08T09:34:15.715Z,4.4
2023-01-08T09:35:17.669Z,4.4
2023-01-08T09:36:19.678Z,4.3
2023-01-08T09:37:21.693Z,4.4
2023-01-08T09:38:23.672Z,4.4
2023-01-08T09:39:25.710Z,4.3
2023-01-08T09:40:27.696Z,4.3
2023-01-08T09:41:29.676Z,4.4
2023-01-08T09:42:33.691Z,4.4
2023-01-08T09:43:40.933Z,4.4
2023-01-08T09:44:40.936Z,4.4
2023-01-08T09:45:41.126Z,4.4
2023-01-08T09:46:43.800Z,4.4
2023-01-08T09:47:45.693Z,4.4
2023-01-08T09:48:48.680Z,4.4
2023-01-08T09:49:50.704Z,4.4
2023-01-08T09:50:52.762Z,4.4
2023-01-08T09:51:54.698Z,4.4
2023-01-08T09:53:01.299Z,4.4
2023-01-08T09:53:58.705Z,4.4
2023-01-08T09:55:01.120Z,4.4
2023-01-08T09:56:10.952Z,4.5
2023-01-08T09:57:04.695Z,4.5
2023-01-08T09:58:07.701Z,4.5
2023-01-08T09:59:09.697Z,4.5
2023-01-08T10:00:11.690Z,4.5
2023-01-08T10:01:13.888Z,4.5
2023-01-08T10:02:16.817Z,4.5
2023-01-08T10:03:18.691Z,4.6
2023-01-08T10:04:20.703Z,4.6
2023-01-08T10:05:22.715Z,4.6
2023-01-08T10:06:24.909Z,4.6
2023-01-08T10:07:26.699Z,4.6
2023-01-08T10:08:29.700Z,4.6
2023-01-08T10:09:31.712Z,4.7
2023-01-08T10:10:33.751Z,4.7
2023-01-08T10:11:36.759Z,4.7
2023-01-08T10:12:38.710Z,4.7
2023-01-08T10:13:40.720Z,4.8
2023-01-08T10:14:42.710Z,4.8
2023-01-08T10:15:45.701Z,4.8
2023-01-08T10:16:48.758Z,4.8
2023-01-08T10:17:50.711Z,4.8
2023-01-08T10:18:52.752Z,4.8
2023-01-08T10:19:54.711Z,4.7
2023-01-08T10:20:56.709Z,4.7
2023-01-08T10:21:58.910Z,4.7
2023-01-08T10:23:01.215Z,4.6
2023-01-08T10:24:02.747Z,4.7
2023-01-08T10:25:04.715Z,4.7
2023-01-08T10:26:06.717Z,4.7
2023-01-08T10:27:08.899Z,4.7
2023-01-08T10:29:12.929Z,4.7
2023-01-08T10:30:14.883Z,4.7
2023-01-08T10:31:16.995Z,4.8
2023-01-08T10:32:19.079Z,4.8
2023-01-08T10:33:21.895Z,4.8
2023-01-08T10:34:23.934Z,4.8
2023-01-08T10:35:25.942Z,4.8
2023-01-08T10:36:27.898Z,4.8
2023-01-08T10:37:29.940Z,4.8
2023-01-08T10:39:33.901Z,4.8
2023-01-08T10:40:35.895Z,4.8
2023-01-08T10:42:39.951Z,4.8
2023-01-08T10:43:41.893Z,4.8
2023-01-08T10:45:47.574Z,4.9
2023-01-08T10:46:50.523Z,4.9
2023-01-08T10:47:52.744Z,4.9
2023-01-08T10:48:54.527Z,5
2023-01-08T10:49:56.548Z,5
2023-01-08T10:51:10.744Z,5
2023-01-08T10:52:01.147Z,5
2023-01-08T10:53:02.559Z,5
2023-01-08T10:54:05.532Z,5
2023-01-08T10:55:07.526Z,5
2023-01-08T10:56:09.519Z,5.1
2023-01-08T10:57:11.558Z,5.1
2023-01-08T10:58:13.564Z,5.1
2023-01-08T10:59:15.541Z,5.1
2023-01-08T11:00:17.530Z,5.1
2023-01-08T11:01:19.733Z,5.1
2023-01-08T11:02:21.657Z,5.1
2023-01-08T11:03:24.528Z,5.1
2023-01-08T11:04:26.539Z,5.1
2023-01-08T11:05:28.530Z,5.1
2023-01-08T11:06:30.529Z,5.2
2023-01-08T11:07:32.571Z,5.2
2023-01-08T11:08:35.537Z,5.1
2023-01-08T11:09:37.544Z,5.1
2023-01-08T11:10:39.560Z,5.1
2023-01-08T11:11:41.543Z,5.1
2023-01-08T11:12:43.593Z,5.1
2023-01-08T11:13:45.541Z,5.1
2023-01-08T11:14:47.559Z,5.1
2023-01-08T11:15:50.541Z,5.1
2023-01-08T11:16:52.549Z,5.1
2023-01-08T11:17:54.584Z,5
2023-01-08T11:18:56.547Z,5.1
2023-01-08T11:19:58.559Z,5.1
2023-01-08T11:21:01.137Z,5
2023-01-08T11:22:02.574Z,5.1
2023-01-08T11:23:04.549Z,5.1
2023-01-08T11:24:40.980Z,5.1
2023-01-08T11:25:40.958Z,5.1
2023-01-08T11:26:41.008Z,5.1
2023-01-08T11:27:40.989Z,5.1
2023-01-08T11:28:40.978Z,5.1
2023-01-08T11:29:40.960Z,5.1
2023-01-08T11:30:40.967Z,5.2
2023-01-08T11:31:41.028Z,5.2
2023-01-08T11:32:41.088Z,5.2
2023-01-08T11:33:40.975Z,5.2
2023-01-08T11:34:40.964Z,5.2
2023-01-08T11:35:40.983Z,5.3
2023-01-08T11:36:40.971Z,5.3
2023-01-08T11:37:40.973Z,5.4
2023-01-08T11:38:40.998Z,5.4
2023-01-08T11:39:40.981Z,5.4
2023-01-08T11:40:40.989Z,5.4
2023-01-08T11:42:44.563Z,5.4
2023-01-08T11:44:50.558Z,5.5
2023-01-08T11:45:52.630Z,5.5
2023-01-08T11:47:56.568Z,5.6
2023-01-08T11:48:58.560Z,5.6
2023-01-08T11:50:01.190Z,5.6
2023-01-08T11:51:02.590Z,5.6
2023-01-08T11:52:04.560Z,5.6
2023-01-08T11:53:06.558Z,5.7
2023-01-08T11:54:08.561Z,5.6
2023-01-08T11:55:10.575Z,5.6
2023-01-08T11:56:12.587Z,5.7
2023-01-08T11:57:14.583Z,5.7
2023-01-08T11:58:16.571Z,5.7
2023-01-08T11:59:18.577Z,5.7
2023-01-08T12:00:20.589Z,5.7
2023-01-08T12:01:22.626Z,5.7
2023-01-08T12:02:24.588Z,5.7
2023-01-08T12:03:26.679Z,5.7
2023-01-08T12:04:28.574Z,5.8
2023-01-08T12:05:30.573Z,5.8
2023-01-08T12:06:32.602Z,5.8
2023-01-08T12:07:34.576Z,5.8
2023-01-08T12:08:36.623Z,5.8
2023-01-08T12:09:38.573Z,5.8
2023-01-08T12:10:40.581Z,5.9
2023-01-08T12:11:42.581Z,5.9
2023-01-08T12:12:45.641Z,6
2023-01-08T12:13:47.590Z,6
2023-01-08T12:14:51.576Z,6
2023-01-08T12:15:53.580Z,6
2023-01-08T12:16:55.588Z,6
2023-01-08T12:17:57.591Z,6
2023-01-08T12:20:01.800Z,6
2023-01-08T12:21:03.579Z,6
2023-01-08T12:22:05.611Z,6
2023-01-08T12:23:08.588Z,6
2023-01-08T12:24:12.001Z,6
2023-01-08T12:25:12.639Z,6.1
2023-01-08T12:26:14.591Z,6.1
2023-01-08T12:27:16.598Z,6
2023-01-08T12:28:18.592Z,6
2023-01-08T12:29:20.594Z,6
2023-01-08T12:30:22.646Z,6
2023-01-08T12:31:24.643Z,6
2023-01-08T12:32:26.585Z,6
2023-01-08T12:33:28.591Z,6
2023-01-08T12:34:30.587Z,6
2023-01-08T12:35:32.621Z,6
2023-01-08T12:36:34.592Z,6
2023-01-08T12:37:36.584Z,6
2023-01-08T12:38:38.620Z,6
2023-01-08T12:39:40.636Z,5.9
2023-01-08T12:40:42.638Z,5.9
2023-01-08T12:41:44.600Z,5.9
2023-01-08T12:43:00.026Z,5.9
2023-01-08T12:43:50.607Z,5.9
2023-01-08T12:44:52.634Z,5.9
2023-01-08T12:45:54.716Z,5.9
2023-01-08T12:46:56.594Z,6
2023-01-08T12:47:58.602Z,6
2023-01-08T12:49:01.221Z,6
2023-01-08T12:50:02.602Z,5.9
2023-01-08T12:51:04.640Z,5.9
2023-01-08T12:52:06.614Z,6
2023-01-08T12:53:09.613Z,5.9
2023-01-08T12:54:11.603Z,5.9
2023-01-08T12:55:13.626Z,5.9
2023-01-08T12:56:15.597Z,5.9
2023-01-08T12:57:17.623Z,5.9
2023-01-08T12:58:19.614Z,5.9
2023-01-08T12:59:21.607Z,5.9
2023-01-08T13:00:23.653Z,5.9
2023-01-08T13:01:42.455Z,5.9
2023-01-08T13:02:41.083Z,5.9
2023-01-08T13:04:41.051Z,6
2023-01-08T13:05:41.031Z,6
2023-01-08T13:06:41.026Z,6
2023-01-08T13:07:41.030Z,6
2023-01-08T13:08:41.038Z,5.9
2023-01-08T13:09:41.668Z,5.9
2023-01-08T13:10:43.613Z,5.9
2023-01-08T13:11:45.609Z,5.9
2023-01-08T13:12:47.636Z,5.9
2023-01-08T13:13:50.619Z,5.8
2023-01-08T13:14:52.650Z,5.8
2023-01-08T13:15:54.645Z,5.8
2023-01-08T13:16:56.614Z,5.8
2023-01-08T13:17:58.629Z,5.8
2023-01-08T13:19:01.199Z,5.8
2023-01-08T13:20:02.657Z,5.8
2023-01-08T13:21:04.618Z,5.8
2023-01-08T13:22:06.632Z,5.8
2023-01-08T13:23:08.631Z,5.8
2023-01-08T13:24:10.693Z,5.8
2023-01-08T13:25:12.694Z,5.8
2023-01-08T13:26:14.616Z,5.8
2023-01-08T13:28:18.663Z,5.8
2023-01-08T13:29:21.620Z,5.8
2023-01-08T13:30:23.648Z,5.8
2023-01-08T13:31:25.679Z,5.8
2023-01-08T13:32:27.635Z,5.8
2023-01-08T13:33:29.630Z,5.8
2023-01-08T13:34:31.644Z,5.8
2023-01-08T13:35:33.669Z,5.8
2023-01-08T13:36:36.639Z,5.7
2023-01-08T13:37:38.640Z,5.8
2023-01-08T13:38:40.620Z,5.7
2023-01-08T13:39:42.641Z,5.7
2023-01-08T13:40:44.728Z,5.7
2023-01-08T13:41:47.662Z,5.7
2023-01-08T13:42:50.707Z,5.7
2023-01-08T13:43:52.638Z,5.7
2023-01-08T13:44:54.659Z,5.7
2023-01-08T13:45:56.669Z,5.7
2023-01-08T13:46:58.636Z,5.7
2023-01-08T13:48:01.180Z,5.7
2023-01-08T13:49:02.647Z,5.7
2023-01-08T13:50:04.648Z,5.6
2023-01-08T13:51:06.698Z,5.6
2023-01-08T13:52:08.644Z,5.6
2023-01-08T13:53:10.646Z,5.6
2023-01-08T13:54:12.655Z,5.5
2023-01-08T13:55:14.656Z,5.6
2023-01-08T13:56:16.647Z,5.5
2023-01-08T13:57:18.709Z,5.5
2023-01-08T13:58:20.677Z,5.5
2023-01-08T13:59:22.645Z,5.5
2023-01-08T14:00:24.666Z,5.5
2023-01-08T14:01:26.803Z,5.5
2023-01-08T14:02:28.848Z,5.6
2023-01-08T14:03:30.666Z,5.6
2023-01-08T14:04:32.657Z,5.6
2023-01-08T14:05:34.713Z,5.6
2023-01-08T14:06:36.664Z,5.5
2023-01-08T14:07:38.702Z,5.5
2023-01-08T14:08:40.671Z,5.5
2023-01-08T14:09:42.669Z,5.6
2023-01-08T14:10:45.646Z,5.6
2023-01-08T14:11:47.685Z,5.6
2023-01-08T14:12:50.701Z,5.6
2023-01-08T14:13:52.708Z,5.5
2023-01-08T14:14:54.658Z,5.5
2023-01-08T14:15:56.655Z,5.5
2023-01-08T14:16:58.759Z,5.5
2023-01-08T14:18:01.154Z,5.5
2023-01-08T14:19:02.661Z,5.5
2023-01-08T14:20:06.678Z,5.5
2023-01-08T14:21:06.670Z,5.5
2023-01-08T14:22:08.662Z,5.5
2023-01-08T14:23:10.665Z,5.4
2023-01-08T14:24:12.670Z,5.4
2023-01-08T14:25:14.690Z,5.4
2023-01-08T14:26:16.654Z,5.4
2023-01-08T14:27:19.667Z,5.4
2023-01-08T14:28:21.667Z,5.4
2023-01-08T14:29:24.684Z,5.4
2023-01-08T14:30:27.688Z,5.4
2023-01-08T14:31:29.692Z,5.4
2023-01-08T14:32:31.683Z,5.4
2023-01-08T14:33:33.686Z,5.4
2023-01-08T14:36:39.723Z,5.4
2023-01-08T14:37:41.679Z,5.4
2023-01-08T14:38:43.687Z,5.4
2023-01-08T14:40:51.680Z,5.4
2023-01-08T14:41:53.739Z,5.4
2023-01-08T14:42:55.678Z,5.4
2023-01-08T14:43:57.676Z,5.4
2023-01-08T14:44:59.694Z,5.4
2023-01-08T14:46:01.715Z,5.4
2023-01-08T14:47:03.679Z,5.4
2023-01-08T14:48:05.679Z,5.5
2023-01-08T14:49:07.687Z,5.5
2023-01-08T14:50:09.684Z,5.5
2023-01-08T14:51:12.712Z,5.4
2023-01-08T14:52:15.097Z,5.4
2023-01-08T14:53:16.691Z,5.5
2023-01-08T14:54:41.107Z,5.5
2023-01-08T14:55:41.109Z,5.5
2023-01-08T14:56:41.304Z,5.5
2023-01-08T14:57:41.309Z,5.5
2023-01-08T14:58:41.147Z,5.5
2023-01-08T14:59:41.150Z,5.5
2023-01-08T15:01:41.243Z,5.4
2023-01-08T15:03:56.382Z,5.4
2023-01-08T15:09:41.100Z,5.4
2023-01-08T15:10:41.034Z,5.4
2023-01-08T15:11:49.013Z,5.4
2023-01-08T15:12:41.083Z,5.4
2023-01-08T15:14:03.888Z,5.4
2023-01-08T15:15:05.901Z,5.4
2023-01-08T15:16:07.964Z,5.4
2023-01-08T15:17:09.889Z,5.4
2023-01-08T15:19:14.061Z,5.4
2023-01-08T15:20:16.030Z,5.4
2023-01-08T15:21:18.033Z,5.4